Time;durP1;ratioP1;P1;durP2;ratioP2;P2;SDS_P1;SDS_P2;PMS_P1;PMS_P2;Temp;Humidity;BMP_temperature;BMP_pressure;BME280_temperature;BME280_humidity;BME280_pressure;Samples;Min_cycle;Max_cycle;Signal;HPM_P1;HPM_P2
2022/08/06 00:00:58;;;;;;;;;;;;;;;-145.18;100.00;46644.78;5012737;28;20302;-75
2022/08/06 00:03:24;;;;;;;;;;;;;;;-145.18;100.00;46652.59;5012481;28;19913;-75
2022/08/06 00:05:49;;;;;;;;;;;;;;;-145.18;100.00;46644.78;5013040;28;19928;-76
2022/08/06 00:08:14;;;;;;;;;;;;;;;-145.18;100.00;46644.78;5012267;28;20137;-76
2022/08/06 00:10:39;;;;;;;;;;;;;;;-145.18;100.00;46646.72;5012615;28;19944;-75
2022/08/06 00:13:05;;;;;;;;;;;;;;;-145.18;100.00;46644.78;5012068;28;19921;-75
2022/08/06 00:15:30;;;;;;;;;;;;;;;-145.18;100.00;46644.78;5012479;28;19928;-75
2022/08/06 00:17:56;;;;;;;;;;;;;;;-145.18;100.00;46642.81;4994845;28;19922;-75
2022/08/06 00:20:21;;;;;;;;;;;;;;;-145.18;100.00;46644.78;5012205;28;20391;-75
2022/08/06 00:22:46;;;;;;;;;;;;;;;-145.18;100.00;46648.69;5012075;28;19927;-76
2022/08/06 00:25:11;;;;;;;;;;;;;;;-145.18;100.00;46640.88;4994910;28;19964;-74
2022/08/06 00:27:37;;;;;;;;;;;;;;;-145.18;100.00;46644.78;5011983;28;19910;-75
2022/08/06 00:30:03;;;;;;;;;;;;;;;-145.18;100.00;46638.91;5012481;28;19957;-75
2022/08/06 00:32:29;;;;;;;;;;;;;;;-145.18;100.00;46638.91;5011522;28;19964;-75
2022/08/06 00:34:54;;;;;;;;;;;;;;;-145.18;100.00;46638.91;5012212;28;19921;-75
2022/08/06 00:37:19;;;;;;;;;;;;;;;-145.18;100.00;46636.94;5011938;28;20019;-75
2022/08/06 00:39:45;;;;;;;;;;;;;;;-145.18;100.00;46638.91;5012363;28;19921;-75
2022/08/06 00:42:10;;;;;;;;;;;;;;;-145.18;100.00;46644.78;4994353;28;19917;-76
2022/08/06 00:44:35;;;;;;;;;;;;;;;-145.18;100.00;46638.91;5011881;28;20400;-75
2022/08/06 00:47:00;;;;;;;;;;;;;;;-145.18;100.00;46636.94;5011783;28;20270;-76
2022/08/06 00:49:26;;;;;;;;;;;;;;;-145.18;100.00;46638.91;5012118;28;20385;-76
2022/08/06 00:51:51;;;;;;;;;;;;;;;-145.18;100.00;46640.88;5011448;28;19925;-75
2022/08/06 00:54:16;;;;;;;;;;;;;;;-145.18;100.00;46636.94;4994026;28;19925;-76
2022/08/06 00:56:41;;;;;;;;;;;;;;;-145.18;100.00;46640.88;5011466;28;20085;-74
2022/08/06 00:59:07;;;;;;;;;;;;;;;-145.18;100.00;46676.03;5012075;28;20373;-76
2022/08/06 01:01:32;;;;;;;;;;;;;;;-145.18;100.00;46636.94;5011377;28;19928;-75
2022/08/06 01:03:57;;;;;;;;;;;;;;;-145.18;100.00;46636.94;5011824;28;19920;-76
2022/08/06 01:06:23;;;;;;;;;;;;;;;-145.18;100.00;46638.91;4993427;28;19917;-75
2022/08/06 01:08:48;;;;;;;;;;;;;;;-145.18;100.00;46660.41;5011843;28;19961;-75
2022/08/06 01:11:14;;;;;;;;;;;;;;;-145.18;100.00;46638.91;5011232;28;19917;-74
2022/08/06 01:13:39;;;;;;;;;;;;;;;-145.18;100.00;46638.91;5011517;28;19928;-75
2022/08/06 01:16:11;;;;;;;;;;;;;;;-145.18;100.00;46640.88;5011677;28;20286;-75
2022/08/06 01:18:59;;;;;;;;;;;;;;;-145.18;100.00;46636.94;5011454;28;19928;-75
2022/08/06 01:21:43;;;;;;;;;;;;;;;-145.18;100.00;46676.03;5000303;28;20453;-75
2022/08/06 01:24:28;;;;;;;;;;;;;;;-145.18;100.00;46642.81;5011495;28;19917;-76
2022/08/06 01:27:03;;;;;;;;;;;;;;;-145.18;100.00;46660.41;5011229;28;19956;-75
2022/08/06 01:29:33;;;;;;;;;;;;;;;-145.18;100.00;46660.41;5011569;28;19919;-75
2022/08/06 01:32:01;;;;;;;;;;;;;;;-145.18;100.00;46660.41;5011145;28;19919;-75
2022/08/06 01:34:35;;;;;;;;;;;;;;;-145.18;100.00;46660.41;4993575;28;20281;-76
2022/08/06 01:37:09;;;;;;;;;;;;;;;-145.18;100.00;46660.41;5011090;28;19959;-75
2022/08/06 01:39:36;;;;;;;;;;;;;;;-145.18;100.00;46636.94;5011637;28;19967;-75
2022/08/06 01:42:03;;;;;;;;;;;;;;;-145.18;100.00;46636.94;5010921;28;20008;-74
2022/08/06 01:44:30;;;;;;;;;;;;;;;-145.18;100.00;46660.41;4993442;28;19918;-74
2022/08/06 01:46:58;;;;;;;;;;;;;;;-145.18;100.00;46638.91;5011083;28;20396;-74
2022/08/06 01:49:25;;;;;;;;;;;;;;;-145.18;100.00;46660.41;5011218;28;19913;-74
2022/08/06 01:51:51;;;;;;;;;;;;;;;-145.18;100.00;46676.03;5010656;28;19925;-74
2022/08/06 01:54:18;;;;;;;;;;;;;;;-145.18;100.00;46660.41;4992979;28;20322;-74
2022/08/06 01:56:44;;;;;;;;;;;;;;;-145.18;100.00;46660.41;5010847;28;19918;-75
2022/08/06 01:59:12;;;;;;;;;;;;;;;-145.18;100.00;46660.41;5011283;28;20295;-74
2022/08/06 02:01:38;;;;;;;;;;;;;;;-145.18;100.00;46660.41;5171848;23;19922;-75
2022/08/06 02:04:04;;;;;;;;;;;;;;;-145.18;100.00;46660.41;4962700;28;20017;-74
2022/08/06 02:06:34;;;;;;;;;;;;;;;-145.18;100.00;46660.41;4958648;28;19918;-74
2022/08/06 02:09:01;;;;;;;;;;;;;;;-145.18;100.00;46660.41;4952675;29;19918;-74
2022/08/06 02:11:26;;;;;;;;;;;;;;;-145.18;100.00;46660.41;4953550;29;19930;-74
2022/08/06 02:13:52;;;;;;;;;;;;;;;-145.18;100.00;46660.41;4952629;28;19941;-74
2022/08/06 02:16:18;;;;;;;;;;;;;;;-145.18;100.00;46660.41;4953360;29;20291;-74
2022/08/06 02:18:45;;;;;;;;;;;;;;;-145.18;100.00;46660.41;4952576;29;19923;-75
2022/08/06 02:21:14;;;;;;;;;;;;;;;-145.18;100.00;46660.41;4953032;29;20397;-75
2022/08/06 02:23:40;;;;;;;;;;;;;;;-145.18;100.00;46660.41;4952628;29;19921;-74
2022/08/06 02:26:06;;;;;;;;;;;;;;;-145.18;100.00;46660.41;4953276;29;19914;-74
2022/08/06 02:28:33;;;;;;;;;;;;;;;-145.18;100.00;46660.41;4952742;29;19922;-74
2022/08/06 02:30:58;;;;;;;;;;;;;;;-145.18;100.00;46660.41;4952848;28;19978;-75
2022/08/06 02:33:24;;;;;;;;;;;;;;;-145.18;100.00;46660.41;4952708;29;19914;-76
2022/08/06 02:36:08;;;;;;;;;;;;;;;-145.18;100.00;46660.41;4952973;29;19926;-75
2022/08/06 02:38:40;;;;;;;;;;;;;;;-145.18;100.00;46660.41;4952637;29;19918;-75
2022/08/06 02:41:29;;;;;;;;;;;;;;;-145.18;100.00;46660.41;4952785;29;19933;-75
2022/08/06 02:43:56;;;;;;;;;;;;;;;-145.18;100.00;46660.41;4952196;29;20013;-75
2022/08/06 02:46:25;;;;;;;;;;;;;;;-145.18;100.00;46660.41;4952934;29;19946;-74
2022/08/06 02:48:56;;;;;;;;;;;;;;;-145.18;100.00;46660.41;4952194;29;19918;-74
2022/08/06 02:51:27;;;;;;;;;;;;;;;-145.18;100.00;46660.41;4952936;29;20433;-75
2022/08/06 02:54:05;;;;;;;;;;;;;;;-145.18;100.00;46660.41;4955168;29;19989;-75
2022/08/06 02:56:31;;;;;;;;;;;;;;;-145.18;100.00;46660.41;4956066;29;19918;-75
2022/08/06 02:58:57;;;;;;;;;;;;;;;-145.18;100.00;46660.41;4955566;29;19920;-76
2022/08/06 03:01:26;;;;;;;;;;;;;;;-145.18;100.00;46660.41;4956126;28;20025;-75
2022/08/06 03:03:53;;;;;;;;;;;;;;;-145.18;100.00;46660.41;4973863;28;19984;-75
2022/08/06 03:06:19;;;;;;;;;;;;;;;-145.18;100.00;46660.41;4975119;28;19918;-75
2022/08/06 03:08:45;;;;;;;;;;;;;;;-145.18;100.00;46660.41;4974774;28;19973;-75
2022/08/06 03:11:11;;;;;;;;;;;;;;;-145.18;100.00;46660.41;4975099;28;19937;-75
2022/08/06 03:13:38;;;;;;;;;;;;;;;-145.18;100.00;46660.41;4957754;28;19964;-75
2022/08/06 03:16:04;;;;;;;;;;;;;;;-145.18;100.00;46660.41;4974876;28;19957;-75
2022/08/06 03:18:30;;;;;;;;;;;;;;;-145.18;100.00;46660.41;4974731;28;19925;-75
2022/08/06 03:20:57;;;;;;;;;;;;;;;-145.18;100.00;46660.41;4974955;28;20310;-75
2022/08/06 03:23:23;;;;;;;;;;;;;;;-145.18;100.00;46660.41;4974726;28;19940;-75
2022/08/06 03:25:50;;;;;;;;;;;;;;;-145.18;100.00;46660.41;4975163;28;20367;-75
2022/08/06 03:28:15;;;;;;;;;;;;;;;-145.18;100.00;46660.41;4974469;28;19914;-75
2022/08/06 03:30:41;;;;;;;;;;;;;;;-145.18;100.00;46660.41;4974945;28;19918;-75
2022/08/06 03:33:09;;;;;;;;;;;;;;;-145.18;100.00;46660.41;4974758;28;19969;-75
2022/08/06 03:35:35;;;;;;;;;;;;;;;-145.18;100.00;46660.41;4974924;28;19914;-75
2022/08/06 03:38:01;;;;;;;;;;;;;;;-145.18;100.00;46660.41;4974762;28;19918;-75
2022/08/06 03:40:28;;;;;;;;;;;;;;;-145.18;100.00;46660.41;4974982;28;19918;-75
2022/08/06 03:42:53;;;;;;;;;;;;;;;-145.18;100.00;46660.41;4974142;28;19949;-75
2022/08/06 03:45:18;;;;;;;;;;;;;;;-145.18;100.00;46660.41;4974888;28;20412;-75
2022/08/06 03:47:47;;;;;;;;;;;;;;;-145.18;100.00;46660.41;4974474;28;20392;-75
2022/08/06 03:50:15;;;;;;;;;;;;;;;-145.18;100.00;46660.41;4974931;28;19918;-75
2022/08/06 03:52:42;;;;;;;;;;;;;;;-145.18;100.00;46660.41;4974149;28;19914;-75
2022/08/06 03:55:11;;;;;;;;;;;;;;;-145.18;100.00;46660.41;4974832;28;19953;-74
2022/08/06 03:57:41;;;;;;;;;;;;;;;-145.18;100.00;46660.41;4974322;28;19914;-74
2022/08/06 04:00:10;;;;;;;;;;;;;;;-145.18;100.00;46660.41;4974593;28;19947;-74
2022/08/06 04:02:40;;;;;;;;;;;;;;;-145.18;100.00;46660.41;4973981;28;19926;-74
2022/08/06 04:05:06;;;;;;;;;;;;;;;-145.18;100.00;46660.41;4973751;28;20374;-74
2022/08/06 04:07:31;;;;;;;;;;;;;;;-145.18;100.00;46660.41;4974088;28;19973;-75
2022/08/06 04:09:57;;;;;;;;;;;;;;;-145.18;100.00;46660.41;4973982;28;19968;-75
2022/08/06 04:12:24;;;;;;;;;;;;;;;-145.18;100.00;46660.41;4973559;28;19914;-74
2022/08/06 04:14:50;;;;;;;;;;;;;;;-145.18;100.00;46660.41;4974076;28;20004;-74
2022/08/06 04:17:16;;;;;;;;;;;;;;;-145.18;100.00;46660.41;4973892;28;19940;-74
2022/08/06 04:19:42;;;;;;;;;;;;;;;-145.18;100.00;46660.41;4973908;28;19921;-74
2022/08/06 04:22:08;;;;;;;;;;;;;;;-145.18;100.00;46660.41;4973787;28;20410;-74
2022/08/06 04:24:33;;;;;;;;;;;;;;;-145.18;100.00;46660.41;4974083;28;19965;-74
2022/08/06 04:27:04;;;;;;;;;;;;;;;-145.18;100.00;46660.41;4974075;28;19918;-73
2022/08/06 04:29:30;;;;;;;;;;;;;;;-145.18;100.00;46660.41;4974067;28;19914;-74
2022/08/06 04:31:56;;;;;;;;;;;;;;;-145.18;100.00;46660.41;4973796;28;19914;-74
2022/08/06 04:34:25;;;;;;;;;;;;;;;-145.18;100.00;46660.41;4973669;28;19922;-74
2022/08/06 04:36:52;;;;;;;;;;;;;;;-145.18;100.00;46660.41;4973745;28;20020;-74
2022/08/06 04:39:18;;;;;;;;;;;;;;;-145.18;100.00;46660.41;4956368;28;20337;-74
2022/08/06 04:41:43;;;;;;;;;;;;;;;-145.18;100.00;46660.41;4973599;28;19997;-75
2022/08/06 04:44:09;;;;;;;;;;;;;;;-145.18;100.00;46658.44;4973189;28;20064;-75
2022/08/06 04:46:34;;;;;;;;;;;;;;;-145.18;100.00;46660.41;4973777;28;19918;-75
2022/08/06 04:48:59;;;;;;;;;;;;;;;-145.18;100.00;46656.50;4983850;28;20008;-75
2022/08/06 04:51:25;;;;;;;;;;;;;;;-145.18;100.00;46656.50;4992722;28;19921;-75
2022/08/06 04:53:50;;;;;;;;;;;;;;;-145.18;100.00;46656.50;4992325;28;19972;-75
2022/08/06 04:56:15;;;;;;;;;;;;;;;-145.18;100.00;46660.41;4992303;28;20348;-75
2022/08/06 04:58:40;;;;;;;;;;;;;;;-145.18;100.00;46658.44;4991868;28;19918;-75
2022/08/06 05:01:06;;;;;;;;;;;;;;;-145.18;100.00;46654.53;4992211;28;19917;-75
2022/08/06 05:03:31;;;;;;;;;;;;;;;-145.18;100.00;46658.44;4991871;28;19930;-74
2022/08/06 05:06:18;;;;;;;;;;;;;;;-145.18;100.00;46658.44;4992251;28;19928;-75
2022/08/06 05:08:46;;;;;;;;;;;;;;;-145.18;100.00;46654.53;4991161;28;19984;-74
2022/08/06 05:11:18;;;;;;;;;;;;;;;-145.18;100.00;46660.41;4992213;28;20027;-74
2022/08/06 05:13:45;;;;;;;;;;;;;;;-145.18;100.00;46656.50;4991611;28;19913;-74
2022/08/06 05:16:12;;;;;;;;;;;;;;;-145.18;100.00;46656.50;4991172;28;20453;-75
2022/08/06 05:18:48;;;;;;;;;;;;;;;-145.18;100.00;46656.50;4991751;28;20000;-74
2022/08/06 05:21:16;;;;;;;;;;;;;;;-145.18;100.00;46654.53;4990280;28;19913;-74
2022/08/06 05:23:44;;;;;;;;;;;;;;;-145.18;100.00;46652.59;4991700;28;19926;-74
2022/08/06 05:26:10;;;;;;;;;;;;;;;-145.18;100.00;46656.50;4992344;28;19914;-74
2022/08/06 05:28:38;;;;;;;;;;;;;;;-145.18;100.00;46617.41;4992213;28;19922;-74
2022/08/06 05:31:03;;;;;;;;;;;;;;;-145.18;100.00;46652.59;4972472;28;19918;-74
2022/08/06 05:33:30;;;;;;;;;;;;;;;-145.18;100.00;46615.47;4972745;28;19925;-74
2022/08/06 05:35:56;;;;;;;;;;;;;;;-145.18;100.00;46613.50;4972590;28;19914;-75
2022/08/06 05:38:22;;;;;;;;;;;;;;;-145.18;100.00;46615.47;4972489;28;19953;-74
2022/08/06 05:40:47;;;;;;;;;;;;;;;-145.18;100.00;46615.47;4987794;28;19961;-74
2022/08/06 05:43:12;;;;;;;;;;;;;;;-145.18;100.00;46613.50;4988181;28;19918;-74
2022/08/06 05:45:40;;;;;;;;;;;;;;;-145.18;100.00;46611.56;4980281;28;20328;-74
2022/08/06 05:48:06;;;;;;;;;;;;;;;-145.18;100.00;46609.59;4972556;28;19913;-75
2022/08/06 05:50:34;;;;;;;;;;;;;;;-145.18;100.00;46615.47;4987154;28;20060;-74
2022/08/06 05:52:59;;;;;;;;;;;;;;;-145.18;100.00;46615.47;4990858;28;19921;-74
2022/08/06 05:55:31;;;;;;;;;;;;;;;-145.18;100.00;46613.50;4973881;28;20559;-74
2022/08/06 05:57:59;;;;;;;;;;;;;;;-145.18;100.00;46611.56;4986424;28;20419;-75
2022/08/06 06:00:26;;;;;;;;;;;;;;;-145.18;100.00;46611.56;4973736;28;19914;-75
2022/08/06 06:02:53;;;;;;;;;;;;;;;-145.18;100.00;46607.66;4979609;28;19929;-75
2022/08/06 06:05:19;;;;;;;;;;;;;;;-145.18;100.00;46607.66;4971720;28;19944;-75
2022/08/06 06:07:45;;;;;;;;;;;;;;;-145.18;100.00;46607.66;4953922;28;20434;-75
2022/08/06 06:10:12;;;;;;;;;;;;;;;-145.18;100.00;46603.75;4971198;28;20008;-75
2022/08/06 06:12:39;;;;;;;;;;;;;;;-145.18;100.00;46601.78;4971320;28;19926;-75
2022/08/06 06:15:05;;;;;;;;;;;;;;;-145.18;100.00;46603.75;4971745;28;19921;-75
2022/08/06 06:17:31;;;;;;;;;;;;;;;-145.18;100.00;46599.84;4971613;28;19929;-75
2022/08/06 06:20:16;;;;;;;;;;;;;;;-145.18;100.00;46603.75;4954750;28;20314;-75
2022/08/06 06:23:00;;;;;;;;;;;;;;;-145.18;100.00;46599.84;4971245;28;19918;-75
2022/08/06 06:25:30;;;;;;;;;;;;;;;-145.18;100.00;46601.78;4964973;28;19921;-76
2022/08/06 06:27:59;;;;;;;;;;;;;;;-145.18;100.00;46601.78;4973332;28;19922;-75
2022/08/06 06:30:44;;;;;;;;;;;;;;;-145.18;100.00;46601.78;4975677;28;19914;-76
2022/08/06 06:33:20;;;;;;;;;;;;;;;-145.18;100.00;46601.78;4975423;28;19914;-75
2022/08/06 06:35:48;;;;;;;;;;;;;;;-145.18;100.00;46603.75;4957719;28;19922;-75
2022/08/06 06:38:28;;;;;;;;;;;;;;;-145.18;100.00;46601.78;4974985;28;19918;-75
2022/08/06 06:41:08;;;;;;;;;;;;;;;-145.18;100.00;46609.59;4956060;28;19914;-76
2022/08/06 06:43:33;;;;;;;;;;;;;;;-145.18;100.00;46609.59;4958124;28;19918;-75
2022/08/06 06:46:10;;;;;;;;;;;;;;;-145.18;100.00;46611.56;4975558;28;19988;-76
2022/08/06 06:48:44;;;;;;;;;;;;;;;-145.18;100.00;46617.41;4975322;28;19964;-75
2022/08/06 06:51:11;;;;;;;;;;;;;;;-145.18;100.00;46613.50;4976036;28;19910;-75
2022/08/06 06:53:40;;;;;;;;;;;;;;;-145.18;100.00;46617.41;4975599;28;20009;-75
2022/08/06 06:56:07;;;;;;;;;;;;;;;-145.18;100.00;46619.38;4975422;28;19914;-75
2022/08/06 06:58:37;;;;;;;;;;;;;;;-145.18;100.00;46625.22;4958334;28;19957;-75
2022/08/06 07:01:06;;;;;;;;;;;;;;;-145.18;100.00;46633.06;4975543;28;19918;-75
2022/08/06 07:03:34;;;;;;;;;;;;;;;-145.18;100.00;46638.91;4990979;28;20370;-75
2022/08/06 07:06:01;;;;;;;;;;;;;;;-145.18;100.00;46642.81;4993820;28;19925;-75
2022/08/06 07:08:28;;;;;;;;;;;;;;;-145.18;100.00;46652.59;4994418;28;19972;-75
2022/08/06 07:10:55;;;;;;;;;;;;;;;-145.18;100.00;46660.41;4994058;28;19918;-73
2022/08/06 07:13:21;;;;;;;;;;;;;;;-145.18;100.00;46648.69;4993849;28;20001;-73
2022/08/06 07:15:47;;;;;;;;;;;;;;;-145.18;100.00;46611.56;4993551;28;19953;-74
2022/08/06 07:18:13;;;;;;;;;;;;;;;-145.18;100.00;46535.38;4989654;28;19968;-73
2022/08/06 07:20:39;;;;;;;;;;;;;;;-145.18;100.00;46533.44;4985290;28;19929;-73
2022/08/06 07:23:06;;;;;;;;;;;;;;;-145.18;100.00;46527.56;4992590;28;19913;-73
2022/08/06 07:25:36;;;;;;;;;;;;;;;-145.18;100.00;46541.25;4989871;28;20452;-73
2022/08/06 07:28:02;;;;;;;;;;;;;;;-145.18;100.00;46539.28;4986553;28;19918;-74
2022/08/06 07:30:28;;;;;;;;;;;;;;;-145.18;100.00;46533.44;4992115;28;19928;-73
2022/08/06 07:32:53;;;;;;;;;;;;;;;-145.18;100.00;46535.38;4992836;28;20302;-74
2022/08/06 07:35:19;;;;;;;;;;;;;;;-145.18;100.00;46537.34;4993687;28;19968;-74
2022/08/06 07:37:51;;;;;;;;;;;;;;;-145.18;100.00;46541.25;4993699;28;20016;-74
2022/08/06 07:40:24;;;;;;;;;;;;;;;-145.18;100.00;46547.09;4992468;28;19968;-74
2022/08/06 07:42:53;;;;;;;;;;;;;;;-145.18;100.00;46558.81;4992824;28;19922;-74
2022/08/06 07:45:20;;;;;;;;;;;;;;;-145.18;100.00;46547.09;4991919;28;19972;-73
2022/08/06 07:47:46;;;;;;;;;;;;;;;-145.18;100.00;46547.09;4986386;28;19918;-73
2022/08/06 07:50:13;;;;;;;;;;;;;;;-145.18;100.00;46552.97;4985322;28;20397;-74
2022/08/06 07:52:42;;;;;;;;;;;;;;;-145.18;100.00;46556.88;4984849;28;19914;-73
2022/08/06 07:55:11;;;;;;;;;;;;;;;-145.18;100.00;46570.53;4982414;28;19914;-74
2022/08/06 07:57:38;;;;;;;;;;;;;;;-145.18;100.00;46562.72;4975574;28;20583;-73
2022/08/06 08:00:04;;;;;;;;;;;;;;;-145.18;100.00;46574.44;4993041;28;19931;-73
2022/08/06 08:02:29;;;;;;;;;;;;;;;-145.18;100.00;46572.50;4993150;28;19929;-74
2022/08/06 08:07:38;;;;;;;;;;;;;;;-145.18;100.00;46574.44;4976646;28;20306;-74
2022/08/06 08:10:04;;;;;;;;;;;;;;;-145.18;100.00;46570.53;4972376;28;19918;-74
2022/08/06 08:12:30;;;;;;;;;;;;;;;-145.18;100.00;46574.44;4975935;28;19964;-74
2022/08/06 08:14:56;;;;;;;;;;;;;;;-145.18;100.00;46578.34;4972874;28;19918;-73
2022/08/06 08:17:22;;;;;;;;;;;;;;;-145.18;100.00;46578.34;4973486;28;19921;-73
2022/08/06 08:19:47;;;;;;;;;;;;;;;-145.18;100.00;46625.22;4972901;28;19968;-73
2022/08/06 08:22:13;;;;;;;;;;;;;;;-145.18;100.00;46646.72;4973843;28;19918;-73
2022/08/06 08:24:39;;;;;;;;;;;;;;;-145.18;100.00;46636.94;4973463;28;20381;-72
2022/08/06 08:27:08;;;;;;;;;;;;;;;-145.18;100.00;46615.47;4973550;28;19914;-72
2022/08/06 08:29:33;;;;;;;;;;;;;;;-145.18;100.00;46617.41;4972823;28;19914;-72
2022/08/06 08:31:59;;;;;;;;;;;;;;;-145.18;100.00;46611.56;4973588;28;19921;-72
2022/08/06 08:34:24;;;;;;;;;;;;;;;-145.18;100.00;46664.31;4973007;28;20278;-71
2022/08/06 08:36:49;;;;;;;;;;;;;;;-145.18;100.00;46644.78;4980281;28;19932;-72
2022/08/06 08:39:15;;;;;;;;;;;;;;;-145.18;100.00;46648.69;4985477;28;20001;-71
2022/08/06 08:41:46;;;;;;;;;;;;;;;-145.18;100.00;46758.06;4991741;28;19918;-70
2022/08/06 08:44:11;;;;;;;;;;;;;;;-145.18;100.00;46793.22;4989487;28;20097;-71
2022/08/06 08:46:38;;;;;;;;;;;;;;;-145.18;100.00;46769.78;4991997;28;20421;-71
2022/08/06 08:49:05;;;;;;;;;;;;;;;-145.18;100.00;47056.94;4991595;28;19916;-72
2022/08/06 08:51:34;;;;;;;;;;;;;;;-145.18;100.00;47262.06;4992145;28;19960;-71
2022/08/06 08:54:01;;;;;;;;;;;;;;;-145.18;100.00;47238.63;5010872;28;19918;-72
2022/08/06 08:56:26;;;;;;;;;;;;;;;-145.18;100.00;47203.47;5011579;28;20424;-72
2022/08/06 08:58:52;;;;;;;;;;;;;;;-145.18;100.00;47238.63;5011001;28;19921;-72
2022/08/06 09:01:18;;;;;;;;;;;;;;;-145.18;100.00;46631.09;5011553;28;20008;-72
2022/08/06 09:03:43;;;;;;;;;;;;;;;-145.18;100.00;47238.63;5010754;28;19948;-72
2022/08/06 09:06:09;;;;;;;;;;;;;;;-145.18;100.00;47203.47;5011701;28;19952;-72
2022/08/06 09:08:36;;;;;;;;;;;;;;;-145.18;100.00;47183.94;5010975;28;20520;-71
2022/08/06 09:11:01;;;;;;;;;;;;;;;-145.18;100.00;47187.84;5011434;28;19975;-72
2022/08/06 09:13:27;;;;;;;;;;;;;;;-145.18;100.00;47174.16;5010763;28;20362;-72
2022/08/06 09:15:53;;;;;;;;;;;;;;;-145.18;100.00;47164.38;5011406;28;20501;-71
2022/08/06 09:18:22;;;;;;;;;;;;;;;-145.18;100.00;47180.03;5010922;28;19917;-72
2022/08/06 09:20:48;;;;;;;;;;;;;;;-145.18;100.00;47144.84;4993687;28;19917;-72
2022/08/06 09:23:15;;;;;;;;;;;;;;;-145.18;100.00;47156.56;4987865;28;19953;-71
2022/08/06 09:25:50;;;;;;;;;;;;;;;-145.18;100.00;47144.84;4974390;28;19924;-72
2022/08/06 09:28:34;;;;;;;;;;;;;;;-145.18;100.00;47109.69;4971250;28;20004;-72
2022/08/06 09:31:04;;;;;;;;;;;;;;;-145.18;100.00;47101.88;4971861;28;19909;-72
2022/08/06 09:33:30;;;;;;;;;;;;;;;-145.18;100.00;47113.59;4971617;28;19918;-72
2022/08/06 09:36:00;;;;;;;;;;;;;;;-145.18;100.00;47094.06;4971782;28;20001;-72
2022/08/06 09:38:25;;;;;;;;;;;;;;;-145.18;100.00;47109.69;4971170;28;19921;-72
2022/08/06 09:41:03;;;;;;;;;;;;;;;-145.18;100.00;47105.78;4971726;28;19918;-72
2022/08/06 09:43:28;;;;;;;;;;;;;;;-145.18;100.00;47113.59;4976428;28;19918;-72
2022/08/06 09:45:53;;;;;;;;;;;;;;;-145.18;100.00;47127.28;4971813;28;19918;-72
2022/08/06 09:48:19;;;;;;;;;;;;;;;-145.18;100.00;47127.28;4971393;28;19922;-72
2022/08/06 09:50:45;;;;;;;;;;;;;;;-145.18;100.00;47115.56;4971781;28;19918;-72
2022/08/06 09:53:14;;;;;;;;;;;;;;;-145.18;100.00;47109.69;4971756;28;19918;-72
2022/08/06 09:55:39;;;;;;;;;;;;;;;-145.18;100.00;47164.38;4954259;28;19918;-71
2022/08/06 09:58:05;;;;;;;;;;;;;;;-145.18;100.00;47201.50;4971700;28;20000;-71
2022/08/06 10:00:31;;;;;;;;;;;;;;;-145.18;100.00;47215.19;4971151;28;19956;-71
2022/08/06 10:03:01;;;;;;;;;;;;;;;-145.18;100.00;47289.41;4975870;28;19950;-71
2022/08/06 10:05:27;;;;;;;;;;;;;;;-145.18;100.00;47248.41;4978274;28;19918;-71
2022/08/06 10:08:04;;;;;;;;;;;;;;;-145.18;100.00;47238.63;4978119;28;19928;-72
2022/08/06 10:10:46;;;;;;;;;;;;;;;-145.18;100.00;47178.06;4978339;28;19917;-72
2022/08/06 10:13:13;;;;;;;;;;;;;;;-145.18;100.00;47131.19;4996097;28;20282;-71
2022/08/06 10:15:38;;;;;;;;;;;;;;;-145.18;100.00;47119.47;4997232;28;19917;-70
2022/08/06 10:18:04;;;;;;;;;;;;;;;-145.18;100.00;47086.25;4996690;28;19996;-71
2022/08/06 10:20:29;;;;;;;;;;;;;;;-145.18;100.00;47156.56;4982045;28;19958;-70
2022/08/06 10:22:56;;;;;;;;;;;;;;;-145.18;100.00;47103.81;4976968;28;19921;-71
2022/08/06 10:25:23;;;;;;;;;;;;;;;-145.18;100.00;47094.06;4977288;28;20020;-71
2022/08/06 10:27:48;;;;;;;;;;;;;;;-145.18;100.00;47070.63;4977569;28;19964;-71
2022/08/06 10:30:14;;;;;;;;;;;;;;;-145.18;100.00;47055.00;4977582;28;19953;-71
2022/08/06 10:32:53;;;;;;;;;;;;;;;-145.18;100.00;47043.28;4986010;28;19922;-71
2022/08/06 10:35:20;;;;;;;;;;;;;;;-145.18;100.00;47049.13;4996595;28;20361;-71
2022/08/06 10:37:47;;;;;;;;;;;;;;;-145.18;100.00;47039.34;4996588;28;20008;-72
2022/08/06 10:40:14;;;;;;;;;;;;;;;-145.18;100.00;47017.88;4996666;28;20461;-72
2022/08/06 10:42:40;;;;;;;;;;;;;;;-145.18;100.00;47035.44;4997008;28;19960;-71
2022/08/06 10:45:05;;;;;;;;;;;;;;;-145.18;100.00;47045.22;4996911;28;19913;-71
2022/08/06 10:47:32;;;;;;;;;;;;;;;-145.18;100.00;47047.19;4997159;28;19925;-71
2022/08/06 10:49:58;;;;;;;;;;;;;;;-145.18;100.00;47041.31;4996430;28;19917;-71
2022/08/06 10:52:23;;;;;;;;;;;;;;;-145.18;100.00;47035.44;4996651;28;19922;-72
2022/08/06 10:54:50;;;;;;;;;;;;;;;-145.18;100.00;47035.44;4996340;28;19983;-71
2022/08/06 10:57:15;;;;;;;;;;;;;;;-145.18;100.00;47031.53;4996690;28;19918;-71
2022/08/06 10:59:40;;;;;;;;;;;;;;;-145.18;100.00;47060.84;4995461;28;19922;-71
2022/08/06 11:02:24;;;;;;;;;;;;;;;-145.18;100.00;47049.13;4997029;28;19944;-71
2022/08/06 11:04:55;;;;;;;;;;;;;;;-145.18;100.00;47064.75;4996133;28;19956;-71
2022/08/06 11:07:39;;;;;;;;;;;;;;;-145.18;100.00;47039.34;4997163;28;19920;-72
2022/08/06 11:10:10;;;;;;;;;;;;;;;-145.18;100.00;47006.16;4996767;28;20394;-72
2022/08/06 11:12:58;;;;;;;;;;;;;;;-145.18;100.00;46990.53;4996870;28;19924;-72
2022/08/06 11:15:24;;;;;;;;;;;;;;;-145.18;100.00;47006.16;4993657;28;19926;-72
2022/08/06 11:17:51;;;;;;;;;;;;;;;-145.18;100.00;47002.25;4993236;28;19917;-72
2022/08/06 11:20:31;;;;;;;;;;;;;;;-145.18;100.00;47015.91;4988414;28;19964;-72
2022/08/06 11:22:57;;;;;;;;;;;;;;;-145.18;100.00;47021.78;4990607;28;19918;-72
2022/08/06 11:25:51;;;;;;;;;;;;;;;-145.18;100.00;47017.88;4991536;28;19925;-72
2022/08/06 11:28:18;;;;;;;;;;;;;;;-145.18;100.00;46984.66;4950450;28;19917;-72
2022/08/06 11:30:44;;;;;;;;;;;;;;;-145.18;94.31;47053.03;4981434;28;19919;-72
2022/08/06 11:33:10;;;;;;;;;;;;;;;-145.18;100.00;47027.63;5005088;28;19914;-72
2022/08/06 11:35:35;;;;;;;;;;;;;;;-145.18;100.00;47012.00;5001828;28;19921;-72
2022/08/06 11:38:01;;;;;;;;;;;;;;;-145.18;100.00;47037.41;5001972;28;19913;-72
2022/08/06 11:40:26;;;;;;;;;;;;;;;-145.18;100.00;47027.63;5012579;28;20008;-73
2022/08/06 11:42:51;;;;;;;;;;;;;;;-145.18;100.00;47051.09;5012954;28;19963;-72
2022/08/06 11:45:17;;;;;;;;;;;;;;;-145.18;100.00;47121.41;5012481;28;19953;-72
2022/08/06 11:48:01;;;;;;;;;;;;;;;-145.18;100.00;47137.03;5012450;28;20394;-73
2022/08/06 11:50:27;;;;;;;;;;;;;;;-145.18;100.00;47135.09;5012364;28;19914;-72
2022/08/06 11:52:52;;;;;;;;;;;;;;;-145.18;100.00;47162.44;5012643;28;19952;-72
2022/08/06 11:55:18;;;;;;;;;;;;;;;-145.18;100.00;47156.56;4994364;28;19913;-72
2022/08/06 11:57:43;;;;;;;;;;;;;;;-145.18;100.00;47164.38;4990608;28;20021;-73
2022/08/06 12:00:13;;;;;;;;;;;;;;;-145.18;100.00;47150.72;4973424;28;19918;-72
2022/08/06 12:02:41;;;;;;;;;;;;;;;-145.18;100.00;47144.84;4999988;28;20547;-69
2022/08/06 12:05:07;;;;;;;;;;;;;;;-145.18;100.00;47154.63;5012263;28;20397;-69
2022/08/06 12:07:34;;;;;;;;;;;;;;;-145.18;100.00;47140.94;5012425;28;19925;-69
2022/08/06 12:10:02;;;;;;;;;;;;;;;-145.18;100.00;47055.00;5011324;28;19930;-69
2022/08/06 12:12:27;;;;;;;;;;;;;;;-145.18;100.00;47025.69;5012061;28;19987;-69
2022/08/06 12:14:54;;;;;;;;;;;;;;;-145.18;100.00;47002.25;5011906;28;20350;-69
2022/08/06 12:17:20;;;;;;;;;;;;;;;-145.18;100.00;46992.47;5012512;28;19913;-70
2022/08/06 12:19:46;;;;;;;;;;;;;;;-145.18;97.55;47000.28;5002292;28;20393;-70
2022/08/06 12:22:14;;;;;;;;;;;;;;;-145.18;87.30;47000.28;4992408;28;19918;-70
2022/08/06 12:24:43;;;;;;;;;;;;;;;-145.18;89.17;47013.97;4991364;28;19921;-70